Time;durP1;ratioP1;P1;durP2;ratioP2;P2;SDS_P1;SDS_P2;PMS_P1;PMS_P2;Temp;Humidity;BMP_temperature;BMP_pressure;BME280_temperature;BME280_humidity;BME280_pressure;Samples;Min_cycle;Max_cycle;Signal;HPM_P1;HPM_P2
2024/01/22 15:57:14;;;;;;;;;;;;;;;18.88;51.38;99963.06;2411863;72;42857;-69
2024/01/22 16:00:16;;;;;;;;;;;;;;;19.93;46.71;99964.70;2365967;75;50209;-70
2024/01/22 16:03:18;;;;;;;;;;;;;;;20.50;45.94;99979.80;2314972;76;50858;-70
2024/01/22 16:06:19;;;;;;;;;;;;;;;20.89;44.44;99987.42;2344694;75;51394;-68
2024/01/22 16:09:21;;;;;;;;;;;;;;;21.30;44.96;99978.08;2375033;73;51452;-68
2024/01/22 16:12:23;;;;;;;;;;;;;;;21.45;43.74;99975.93;2354579;74;51406;-69
2024/01/22 16:15:24;;;;;;;;;;;;;;;21.53;44.13;99974.84;2322869;75;50631;-68
2024/01/22 16:18:26;;;;;;;;;;;;;;;21.60;43.83;99980.16;2374742;75;50575;-68
2024/01/22 16:21:28;;;;;;;;;;;;;;;21.65;43.71;99969.55;2377377;75;52286;-68
2024/01/22 16:24:30;;;;;;;;;;;;;;;21.69;43.22;99981.55;2370286;74;51469;-68
2024/01/22 16:27:31;;;;;;;;;;;;;;;21.71;43.14;99968.69;2336625;75;51391;-68
2024/01/22 16:30:39;;;;;;;;;;;;;;;21.72;43.32;99977.87;2339012;75;50259;-68
2024/01/22 16:33:36;;;;;;;;;;;;;;;21.75;43.12;99976.08;2336431;74;41435;-69
2024/01/22 16:36:41;;;;;;;;;;;;;;;21.80;43.17;99986.20;2375093;75;51484;-68
2024/01/22 16:39:41;;;;;;;;;;;;;;;21.82;43.18;99996.23;2374851;74;41875;-68
2024/01/22 16:42:43;;;;;;;;;;;;;;;21.86;43.79;99994.77;2376704;73;50682;-70
2024/01/22 16:45:44;;;;;;;;;;;;;;;21.99;43.63;99987.09;2374577;73;51439;-69
2024/01/22 16:48:46;;;;;;;;;;;;;;;21.94;42.12;99987.74;2381787;74;51485;-69
2024/01/22 16:51:47;;;;;;;;;;;;;;;21.76;41.93;100017.33;2324605;75;50862;-69
2024/01/22 16:54:49;;;;;;;;;;;;;;;21.73;42.07;100017.73;2349034;74;50288;-70
2024/01/22 16:57:51;;;;;;;;;;;;;;;21.81;42.05;100020.68;2390595;74;51353;-70
2024/01/22 17:00:52;;;;;;;;;;;;;;;21.88;41.96;100023.63;2386115;74;52134;-70
2024/01/22 17:03:54;;;;;;;;;;;;;;;21.94;42.66;100018.72;2363866;74;49514;-68
2024/01/22 17:07:04;;;;;;;;;;;;;;;22.02;42.91;100032.44;2385193;74;50244;-69
2024/01/22 17:10:06;;;;;;;;;;;;;;;22.12;42.09;100038.67;2356517;74;50692;-70
2024/01/22 17:13:08;;;;;;;;;;;;;;;22.13;41.81;100038.97;2344094;74;51427;-71
2024/01/22 17:16:09;;;;;;;;;;;;;;;21.93;42.98;100046.69;2323995;76;50023;-69
2024/01/22 17:19:11;;;;;;;;;;;;;;;21.91;43.47;100045.25;2381067;74;50181;-71
2024/01/22 17:22:13;;;;;;;;;;;;;;;21.97;42.36;100051.13;2385187;74;51484;-70
2024/01/22 17:25:14;;;;;;;;;;;;;;;22.05;42.35;100052.72;2385009;74;51261;-70
2024/01/22 17:28:16;;;;;;;;;;;;;;;22.10;42.79;100071.22;2364483;74;51291;-71
2024/01/22 17:31:17;;;;;;;;;;;;;;;22.15;42.79;100082.69;2369207;74;51499;-71
2024/01/22 17:34:19;;;;;;;;;;;;;;;22.15;43.20;100094.81;2344129;74;51445;-70
2024/01/22 17:37:21;;;;;;;;;;;;;;;22.13;44.24;100093.67;2343986;74;50259;-70
2024/01/22 17:40:23;;;;;;;;;;;;;;;22.22;43.46;100101.01;2325649;75;49521;-71
2024/01/22 17:43:25;;;;;;;;;;;;;;;22.26;44.14;100121.06;2344174;76;51449;-71
2024/01/22 17:46:29;;;;;;;;;;;;;;;22.31;44.17;100125.27;2379391;74;50277;-70
2024/01/22 17:49:30;;;;;;;;;;;;;;;22.30;44.22;100126.33;2345668;74;41490;-70
2024/01/22 17:52:32;;;;;;;;;;;;;;;22.28;44.12;100143.23;2363960;74;51060;-70
2024/01/22 17:55:33;;;;;;;;;;;;;;;22.28;44.11;100147.28;2391939;74;49975;-71
2024/01/22 17:58:35;;;;;;;;;;;;;;;22.24;44.78;100158.19;2389807;74;50559;-69
2024/01/22 18:01:36;;;;;;;;;;;;;;;22.22;43.97;100168.88;2392219;74;51704;-69
2024/01/22 18:04:39;;;;;;;;;;;;;;;22.19;44.26;100164.75;2362326;74;49454;-70
2024/01/22 18:07:41;;;;;;;;;;;;;;;22.26;43.98;100177.66;2384878;74;52346;-70
2024/01/22 18:10:42;;;;;;;;;;;;;;;22.23;43.96;100179.45;2365969;74;50188;-72
2024/01/22 18:13:44;;;;;;;;;;;;;;;22.21;44.18;100183.41;2385218;74;50333;-69
2024/01/22 18:16:45;;;;;;;;;;;;;;;22.21;43.85;100194.19;2342671;74;49962;-69
2024/01/22 18:19:47;;;;;;;;;;;;;;;22.17;44.07;100193.78;2358414;74;51415;-68
2024/01/22 18:22:49;;;;;;;;;;;;;;;22.16;43.64;100192.11;2382964;74;51446;-67
2024/01/22 18:25:50;;;;;;;;;;;;;;;22.31;44.46;100208.01;2385083;74;50220;-68
2024/01/22 18:28:52;;;;;;;;;;;;;;;22.24;44.43;100201.83;2360536;74;49989;-69
